DIYOGGOV

Guest
Details From DIYO - YAMOUSSOUKRO
To GGOV - BISSAU OSWALDO VIEIRA INTL
Flight Number -
Tags generated
Created
Modified
Stats Distance 720 nm / 1,334 km
Max Altitude 34,000 ft / 10,363 m
Waypoints 8
Social Downloads 1
Likes 0
Share VATSIM

Download

Looking for another format? Having issues loading an existing format? Contact us
Advertisement - Login to hide

Notes

Basic altitude profile: - Ascent Rate: 2500ft/min - Ascent Speed: 250kts - Cruise Altitude: 35000ft - Cruise Speed: 420kts - Descent Rate: 1500ft/min - Descent Speed: 250kts Options: - Use NATs: yes - Use PACOTS: yes - Use low airways: yes - Use high airways: yes

Route

DIYO POKSO UR979 NANAN V210 GIA UB600 KIRTI GGOV

ID Type Via Altitude Latitude Longitude Leg Dist Tot Dist Heading (true) Name
O DIYO APT - 0 ft / 0 m 6.90317˚ -5.36558˚ - 0 nm - YAMOUSSOUKRO
POKSO FIX - 12,700 ft / 3,871 m 6.75639˚ -5.94750˚ 35 nm 35 nm 256° / 256° -
ERMIT FIX UR979 (AWY-HI) 34,000 ft / 10,363 m 8.36667˚ -8.28333˚ 169 nm 205 nm 305° / 305° -
NANAN FIX UR979 (AWY-HI) 34,000 ft / 10,363 m 9.05000˚ -9.28333˚ 72 nm 277 nm 305° / 305° -
GIA VOR V210 (AWY-HI) 34,000 ft / 10,363 m 9.56798˚ -13.61969˚ 258 nm 536 nm 277° / 277° CONAKRY VOR-DME
AXIRO FIX UB600 (AWY-HI) 30,700 ft / 9,357 m 10.09985˚ -14.03318˚ 40 nm 576 nm 323° / 323° -
KIRTI FIX UB600 (AWY-HI) 24,000 ft / 7,315 m 10.69979˚ -14.53319˚ 46 nm 623 nm 321° / 321° -
O GGOV APT - 0 ft / 0 m 11.89017˚ -15.64883˚ 97 nm 720 nm 318° / 317° BISSAU OSWALDO VIEIRA INTL

Altitude Profile

Advertisement - Login to hide

Weather


0- 5 10 15 20 25 30 35+ Temperature / ° C

Clouds and Precipitation
Forecast for 2017-12-17 12:00 UTC. Updated 38 minutes ago

Ground ~20,000 ft ~40,000 ft Winds

DIYO

Details ICAO DIYO (ASK)
Name YAMOUSSOUKRO
Region Côte d'Ivoire
Timezone Africa/Abidjan (UTC+0.0)
Stats Elevation 699 ft / 213 m (AMSL)
Location 6.903166° -5.365579°
Runways 1
Magnetic Variation 4.682° W

METAR

Not found

TAF

TAF DIYO 171100Z 1712/1812 24004KT 8000 FEW015 PROB30 TEMPO 1712/1718 BKN013 PROB30 1802/1808 2000 BR FEW011

Decode

Departure Runways

ID Width Length Bearing (true) Bearing (mag) Surface Threshold Offset Overrun Length
05 148 ft / 45 m 9,946 ft / 3,032 m 41.92° 46.60° Asphalt 0 ft / 0 m 330 ft / 101 m
23 148 ft / 45 m 9,946 ft / 3,032 m 221.92° 226.60° Asphalt 0 ft / 0 m 330 ft / 101 m

GGOV

Details ICAO GGOV (OXB)
Name BISSAU OSWALDO VIEIRA INTL
Region Guinea Bissau
Timezone Africa/Bissau (UTC+0.0)
Stats Elevation 129 ft / 39 m (AMSL)
Location 11.890166° -15.648833°
Runways 1
Magnetic Variation 7.239° W

METAR

GGOV 171100Z 06008KT 9000 NSC 26/05 Q1014 NOSIG

Decode

TAF

TAF GGOV 171100Z 1712/1812 06010KT 8000 NSC BECMG 1721/1723 34005KT= TAF GQPP 171100Z 1712/1812 03016KT 7000 NSC

Decode

Destination Runways

ID Width Length Bearing (true) Bearing (mag) Surface Threshold Offset Overrun Length
03 148 ft / 45 m 10,509 ft / 3,203 m 22.10° 29.34° Asphalt 0 ft / 0 m 1,312 ft / 400 m
21 148 ft / 45 m 10,509 ft / 3,203 m 202.10° 209.34° Asphalt 0 ft / 0 m 656 ft / 200 m